Tiempo atmosférico en la estación meteorológica de Sitges, Barcelona (54 m.)



Fecha
DESCASC
Temp. máxima en grados centígrados (hora)
DESCASC
Temp. mínima en grados centígrados (hora)
DESCASC
Temp. media en grados centígrados
DESCASC
Racha de viento máxima en m/sg (hora)
DESCASC
Velocidad máxima media en intervalos de 10 minutos(hora)
DESCASC
Precipitaciones diarias en mm
DESCASC
Precipitaciones de 00:00 a 06:00 en mm
DESCASC
Precipitaciones de 06:00 a 12:00 en mm
DESCASC
Precipitaciones de 12:00 a 18:00 en mm
DESCASC
Precipitaciones de 18:00 a 24:00 en mm
DESCASC
28-02-2021 15.1 (15:00) 8.1 (04:00) 11.6 9.72 (21:50) 4.72 (21:50) 0 0 0 0 0
27-02-2021 16.1 (14:40) 6.9 (06:30) 11.5 5.83 (13:30) 2.78 (13:30) 0 0 0 0 0
26-02-2021 14.9 (15:10) 7.7 (23:50) 11.3 5.28 (07:40) 2.78 (07:30) 0 0 0 0 0
25-02-2021 16.2 (14:40) 8.9 (00:00) 12.6 6.67 (14:00) 2.22 (14:00) 0 0 0 0 0
24-02-2021 16.1 (13:50) 9.5 (00:00) 12.8 5.83 (10:50) 3.61 (10:20) 0 0 0 0 0
23-02-2021 17.6 (14:10) 11.4 (00:00) 14.5 8.06 (17:20) 4.17 (11:40) 0 0 0 0 0
22-02-2021 15.3 (03:30) 11 (00:00) 13.2 13.06 (00:10) 6.39 (00:10) 5 0 3.4 0.4 1.2
21-02-2021 15 (23:50) 7.9 (00:00) 11.5 18.06 (20:00) 8.33 (11:20) 0 0 0 0 0
20-02-2021 14.1 (16:00) 8.1 (00:00) 11.1 4.72 (19:20) 1.94 (19:20) 0 0 0 0 0
19-02-2021 12.9 (14:20) 5.8 (00:00) 9.3 5.56 (13:00) 2.5 (14:10) 0 0 0 0 0
18-02-2021 14.3 (15:00) 8.3 (00:00) 11.3 5 (04:00) 2.5 (03:10) 0 0 0 0 0
17-02-2021 14.3 (11:10) 7.3 (00:00) 10.8 5.28 (13:00) 2.5 (12:20) 0 0 0 0 0
16-02-2021 -- (--) -- (--) -- -- (--) -- (--) -- -- 0 0 0
15-02-2021 11.4 (14:10) 7.8 (00:00) 9.6 4.72 (23:50) 2.5 (23:50) 1.4 0 0 0 1.4
14-02-2021 12.5 (00:00) 8.3 (00:00) 10.4 9.17 (07:50) 4.44 (02:40) 1.2 1.2 0 0 0
13-02-2021 -- (--) -- (--) -- -- (--) -- (--) -- -- 0 0 0
12-02-2021 16.5 (15:30) 8.3 (00:00) 12.4 8.33 (16:00) 3.89 (19:10) 0.4 0 0 0 0.4
11-02-2021 -- (--) -- (--) -- -- (--) -- (--) -- 0 -- 0 0
10-02-2021 15 (15:20) 9.3 (00:00) 12.2 14.72 (13:30) 6.67 (14:40) 0.2 0 0.2 0 0
09-02-2021 14.4 (11:10) 6.6 (00:00) 10.5 7.5 (01:20) 3.89 (16:10) 0.2 0 0 0 0.2
08-02-2021 14.7 (10:30) 8.5 (00:00) 11.6 8.89 (01:50) 3.61 (00:40) 2.8 0 0.4 2.4 0
07-02-2021 14.8 (13:40) 7.7 (00:00) 11.3 10.28 (01:20) 5 (05:00) 0 0 0 0 0
06-02-2021 17.5 (01:00) 11.8 (00:00) 14.7 11.39 (07:30) 4.17 (05:00) 0 0 0 0 0
05-02-2021 17.1 (14:00) 9.6 (00:00) 13.4 10.83 (12:10) 5.28 (12:20) 0 0 0 0 0
04-02-2021 14.1 (12:00) 9 (00:00) 11.6 4.44 (10:00) 3.06 (11:50) 0 0 0 0 0
03-02-2021 19.3 (11:50) 9.8 (00:00) 14.5 7.78 (13:50) 3.89 (13:00) 0 0 0 0 0
02-02-2021 18.8 (14:10) 10.3 (00:00) 14.5 8.33 (03:10) 4.44 (02:30) 0 0 0 0 0
01-02-2021 20.3 (15:00) 12.2 (00:00) 16.2 18.06 (13:20) 7.5 (14:30) 0 0 0 0 0

Gráficas

Temp. máximas Temp. mínimas Temp. medias Precipitaciones Rachas de viento máximas Velocidades máximas media en intervalos de 10 minutos

Datos horarios

Fecha y hora oficial Temperatura (ºC) Velocidad del viento (km/h) Dirección del viento Racha (km/h) Dirección de racha Precipitación (mm) Presión (hPa) Tendencia (hPa) Humedad (%)
2021-03-02 23:00:00 13 3 Sudeste 13 Sur 0 -- -- 81
2021-03-02 22:00:00 13 5 Sudeste 17 Este 0 -- -- 81
2021-03-02 21:00:00 13.2 6 Sudeste 24 Sudeste 0 -- -- 82
2021-03-02 20:00:00 13.3 9 Sudeste 28 Sudeste 0 -- -- 85
2021-03-02 19:00:00 13.3 9 Sudeste 21 Sudeste 0 -- -- 84
2021-03-02 18:00:00 13.9 9 Sudeste 23 Sur 0 -- -- 80
2021-03-02 17:00:00 14.5 10 Sudeste 23 Sudeste 0 -- -- 74
2021-03-02 16:00:00 14.8 12 Sudeste 28 Sudeste 0 -- -- 73
2021-03-02 15:00:00 15.1 9 Sudeste 31 Sudeste 0 -- -- 72
2021-03-02 14:00:00 15.3 16 Sudeste 30 Sudeste 0 -- -- 72
2021-03-02 13:00:00 15.3 8 Sudeste 27 Sudeste 0 -- -- 72
2021-03-02 12:00:00 14.5 10 Sudeste 31 Sudeste 0 -- -- 74
2021-03-02 11:00:00 13.7 13 Sudeste 33 Sudeste 0 -- -- 75
2021-03-02 10:00:00 13.3 10 Sudeste 32 Sudeste 0 -- -- 73
2021-03-02 09:00:00 13.2 11 Sudeste 32 Sudeste 0 -- -- 67
2021-03-02 08:00:00 13 10 Sudeste 25 Sudeste 0 -- -- 69
2021-03-02 07:00:00 12.8 8 Sudeste 27 Sudeste 0 -- -- 69
2021-03-02 06:00:00 12.6 13 Sudeste 29 Sudeste 0 -- -- 72
2021-03-02 05:00:00 12.6 11 Sudeste 26 Sudeste 0 -- -- 75
2021-03-02 04:00:00 12.6 5 Este 22 Sudeste 0 -- -- 76
2021-03-02 03:00:00 12.7 9 Sudeste 30 Sudoeste 0 -- -- 77
2021-03-02 02:00:00 12.7 12 Sudeste 32 Sur 0 -- -- 79
2021-03-02 01:00:00 12.9 13 Sudeste 30 Sudeste 0 -- -- 78
2021-03-02 00:00:00 12.9 8 Este 30 Este 0 -- -- 77
2021-03-01 23:00:00 12.7 8 Sur 23 Sudeste 0 -- -- 80
2021-03-01 22:00:00 12.9 7 Sudeste 23 Sudeste 0 -- -- 80
2021-03-01 21:00:00 12.8 6 Sudeste 23 Sudeste 0 -- -- 72
2021-03-01 20:00:00 12.9 8 Sudeste 25 Sudeste 0 -- -- 76
2021-03-01 19:00:00 12.9 10 Sudeste 27 Sudeste 0 -- -- 77
2021-03-01 18:00:00 13.3 10 Sudeste 30 Este 0 -- -- 75
2021-03-01 17:00:00 13.7 14 Sudeste 34 Este 0 -- -- 75
2021-03-01 16:00:00 14 14 Sudeste 30 Sudeste 0 -- -- 76
2021-03-01 15:00:00 14.7 11 Sudeste 31 Este 0 -- -- 67
2021-03-01 14:00:00 15.4 12 Sudeste 27 Este 0 -- -- 61
2021-03-01 13:00:00 15.4 12 Sudeste 32 Sudeste 0 -- -- 60
2021-03-01 12:00:00 14.7 13 Sudeste 35 Sudeste 0 -- -- 68
2021-03-01 11:00:00 14.1 12 Sudeste 26 Sudeste 0 -- -- 63
2021-03-01 10:00:00 13.7 9 Sudeste 21 Sudeste 0 -- -- 64
2021-03-01 09:00:00 13 6 Sudeste 18 Sudeste 0 -- -- 66
2021-03-01 08:00:00 12.3 7 Sudeste 20 Este 0 -- -- 70
2021-03-01 07:00:00 12.5 9 Sudeste 21 Sudeste 0 -- -- 69
2021-03-01 06:00:00 12.4 8 Sur 24 Sudeste 0 -- -- 73
2021-03-01 05:00:00 12.4 6 Sudeste 21 Este 0 -- -- 77
2021-03-01 04:00:00 12.5 9 Sudeste 24 Este 0 -- -- 80
2021-03-01 03:00:00 12.6 9 Sudeste 23 Sudoeste 0 -- -- 78
2021-03-01 02:00:00 12.6 8 Sudeste 22 Sudeste 0 -- -- 75
2021-03-01 01:00:00 12.1 7 Sudeste 24 Sudeste 0 -- -- 80
2021-03-01 00:00:00 12.1 14 Sudeste 31 Este 0 -- -- 81
2021-02-28 23:00:00 12.1 12 Sudeste 33 Sudeste 0 -- -- 80
2021-02-28 22:00:00 12.4 15 Sudeste 35 Sudeste 0 -- -- 81
2021-02-28 21:00:00 12.2 15 Sudeste 28 Sudeste 0 -- -- 82
2021-02-28 20:00:00 12.5 13 Este 29 Este 0 -- -- 85
2021-02-28 19:00:00 12.4 10 Sudeste 31 Este 0 -- -- 82
2021-02-28 18:00:00 12.9 9 Este 35 Este 0 -- -- 80
2021-02-28 17:00:00 14.1 6 Sudeste 22 Sur 0 -- -- 72
2021-02-28 16:00:00 14.5 10 Este 30 Sudeste 0 -- -- 72
2021-02-28 15:00:00 15.1 8 Sudeste 28 Sur 0 -- -- 70
2021-02-28 14:00:00 14.9 10 Sudeste 32 Sudeste 0 -- -- 71
2021-02-28 13:00:00 14.7 9 Este 27 Este 0 -- -- 68
2021-02-28 12:00:00 14.2 10 Sudeste 27 Sudeste 0 -- -- 69
2021-02-28 11:00:00 14.4 12 Sur 32 Sur 0 -- -- 65
2021-02-28 10:00:00 13.9 8 Este 18 Este 0 -- -- 65
2021-02-28 09:00:00 11.4 2 Sur 5 Sudeste 0 -- -- 91
2021-02-28 08:00:00 9.2 0 Calma 2 Noroeste 0 -- -- 97
2021-02-28 07:00:00 9.2 0 Calma 2 Noroeste 0 -- -- 98
2021-02-28 06:00:00 9 0 Calma 3 Norte 0 -- -- 98
2021-02-28 05:00:00 8.6 2 Noroeste 3 Noroeste 0 -- -- 98
2021-02-28 04:00:00 8.1 0 Calma 2 Noroeste 0 -- -- 97
2021-02-28 03:00:00 8.6 0 Calma 3 Sudoeste -- -- -- 97
2021-02-28 02:00:00 9 0 Calma 4 Noroeste 0 -- -- 96
2021-02-28 01:00:00 9.3 0 Calma 3 Noroeste 0 -- -- 96
2021-02-28 00:00:00 9.5 0 Calma 4 Sudeste 0 -- -- 96
2021-02-27 23:00:00 9.8 0 Calma 2 Noroeste 0 -- -- 94
2021-02-27 22:00:00 10.1 0 Calma 4 Sur 0 -- -- 95
2021-02-27 21:00:00 9.5 0 Calma 4 Norte 0 -- -- 94
2021-02-27 20:00:00 10 0 Calma 4 Noroeste 0 -- -- 92
2021-02-27 19:00:00 11.1 2 Noroeste 4 Noroeste 0 -- -- 89
2021-02-27 18:00:00 13.3 0 Calma 8 Sudeste 0 -- -- 82
2021-02-27 17:00:00 14.3 4 Sur 13 Sur 0 -- -- 78
2021-02-27 16:00:00 15.2 9 Sudeste 17 Sur 0 -- -- 73
2021-02-27 15:00:00 16.1 4 Norte 19 Noroeste 0 -- -- 68
2021-02-27 14:00:00 15.7 9 Norte 21 Noroeste 0 -- -- 71
2021-02-27 13:00:00 14 5 Norte 18 Noroeste 0 -- -- 80
2021-02-27 12:00:00 14.2 6 Sur 14 Sur 0 -- -- 79
2021-02-27 11:00:00 13.7 8 Sur 15 Sur 0 -- -- 80
2021-02-27 10:00:00 13.2 5 Sur 9 Sur 0 -- -- 82
2021-02-27 09:00:00 10.4 0 Calma 4 Noroeste 0 -- -- 95
2021-02-27 08:00:00 7.1 0 Calma 4 Norte 0 -- -- 95
2021-02-27 07:00:00 6.9 0 Calma 4 Sur 0 -- -- 93
2021-02-27 06:00:00 7.3 0 Calma 3 Noroeste 0 -- -- 92
2021-02-27 05:00:00 7.5 3 Noroeste 4 Noroeste 0 -- -- 93
2021-02-27 04:00:00 7.5 0 Calma 4 Noroeste 0 -- -- 96
2021-02-27 03:00:00 7.2 0 Calma 5 Noroeste 0 -- -- 97
2021-02-27 02:00:00 7.4 2 Norte 4 Norte 0 -- -- 97
2021-02-27 01:00:00 7.7 0 Calma 4 Noroeste 0 -- -- 97
2021-02-27 00:00:00 7.8 0 Calma 2 Noroeste 0 -- -- 96
2021-02-26 23:00:00 8 0 Calma 3 Noroeste 0 -- -- 96
2021-02-26 22:00:00 8.4 0 Calma 3 Noroeste 0 -- -- 94
2021-02-26 21:00:00 8.9 0 Calma 3 Noroeste 0 -- -- 92
2021-02-26 20:00:00 9.7 2 Noroeste 6 Noroeste 0 -- -- 89
2021-02-26 19:00:00 10.9 4 Norte 12 Noroeste 0 -- -- 85
2021-02-26 18:00:00 12.7 3 Noroeste 9 Noroeste 0 -- -- 79
2021-02-26 17:00:00 13.9 5 Norte 13 Sur 0 -- -- 74
2021-02-26 16:00:00 14.7 4 Noroeste 15 Oeste 0 -- -- 73
2021-02-26 15:00:00 14.6 5 Noroeste 14 Noroeste 0 -- -- 72
2021-02-26 14:00:00 14.2 4 Sudeste 10 Sudeste 0 -- -- 73
2021-02-26 13:00:00 13.8 3 Sur 10 Sur 0 -- -- 74
2021-02-26 12:00:00 13.7 4 Sur 9 Sur 0 -- -- 74
2021-02-26 11:00:00 13.6 4 Sur 10 Sur 0 -- -- 74
2021-02-26 10:00:00 13.3 5 Sur 9 Sur 0 -- -- 74
2021-02-26 09:00:00 12.8 4 Oeste 9 Norte 0 -- -- 78
2021-02-26 08:00:00 12.4 4 Norte 19 Noroeste 0 -- -- 81
2021-02-26 07:00:00 12.4 9 Noroeste 16 Noroeste 0 -- -- 81
2021-02-26 06:00:00 12.2 9 Noroeste 16 Noroeste 0 -- -- 83
2021-02-26 05:00:00 12.2 6 Norte 14 Noroeste 0 -- -- 85
2021-02-26 04:00:00 10.6 3 Norte 9 Norte 0 -- -- 95
2021-02-26 03:00:00 10.4 0 Calma 4 Noroeste -- -- -- 96
2021-02-26 02:00:00 10 0 Calma 3 Noroeste 0 -- -- 95
2021-02-26 01:00:00 10.3 0 Calma 8 Este 0 -- -- 92
2021-02-26 00:00:00 11.9 4 Nordeste 9 Nordeste 0 -- -- 89
2021-02-25 23:00:00 12.1 3 Norte 8 Norte 0 -- -- 90
2021-02-25 22:00:00 11.4 2 Noroeste 5 Noroeste 0 -- -- 92
2021-02-25 21:00:00 12.5 0 Calma 7 Noroeste 0 -- -- 89
2021-02-25 20:00:00 12.9 4 Noroeste 8 Norte 0 -- -- 89
2021-02-25 19:00:00 13.2 3 Norte 10 Norte 0 -- -- 88
2021-02-25 18:00:00 13.8 4 Norte 10 Norte 0 -- -- 85
2021-02-25 17:00:00 15 3 Nordeste 14 Noroeste 0 -- -- 77
2021-02-25 16:00:00 15.2 4 Sudeste 15 Sur 0 -- -- 75
2021-02-25 15:00:00 15.7 5 Norte 20 Sur 0 -- -- 75
2021-02-25 14:00:00 15.4 8 Sur 24 Sur 0 -- -- 74
2021-02-25 13:00:00 15.1 7 Sudoeste 18 Sur 0 -- -- 73
2021-02-25 12:00:00 15.5 6 Sur 13 Sudoeste 0 -- -- 72
2021-02-25 11:00:00 15.2 5 Sudoeste 13 Sur 0 -- -- 73
2021-02-25 10:00:00 13.7 4 Sudeste 6 Este 0 -- -- 88
2021-02-25 09:00:00 10.8 0 Calma 4 Noroeste 0 -- -- 99
2021-02-25 08:00:00 9.6 2 Noroeste 3 Noroeste 0 -- -- 99
2021-02-25 07:00:00 10.2 0 Calma 4 Noroeste 0 -- -- 98
2021-02-25 06:00:00 10.2 0 Calma 3 Sur 0 -- -- 98
2021-02-25 05:00:00 9.8 0 Calma 2 Noroeste 0 -- -- 99
2021-02-25 04:00:00 9.5 0 Calma 3 Norte 0 -- -- 98
2021-02-25 03:00:00 9.5 2 Noroeste 4 Noroeste 0 -- -- 98
2021-02-25 02:00:00 9.1 0 Calma 3 Noroeste 0 -- -- 98
2021-02-25 01:00:00 9 0 Calma 3 Noroeste 0 -- -- 97
2021-02-25 00:00:00 9.5 2 Noroeste 3 Noroeste 0 -- -- 97
2021-02-24 23:00:00 9.8 0 Calma 3 Noroeste 0 -- -- 96
2021-02-24 22:00:00 10.1 0 Calma 4 Norte 0 -- -- 96
2021-02-24 21:00:00 10.2 2 Noroeste 3 Noroeste 0 -- -- 95
2021-02-24 20:00:00 11.2 0 Calma 5 Este 0 -- -- 92
2021-02-24 19:00:00 12.7 0 Calma 9 Sur 0 -- -- 89
2021-02-24 18:00:00 13.2 5 Sur 13 Sudeste 0 -- -- 89
2021-02-24 17:00:00 14.3 4 Sur 15 Sur 0 -- -- 82
2021-02-24 16:00:00 14.8 10 Sur 15 Sur 0 -- -- 78
2021-02-24 15:00:00 15.4 9 Sur 15 Sur 0 -- -- 73
2021-02-24 14:00:00 15.9 10 Sur 16 Sur 0 -- -- 70
2021-02-24 13:00:00 15.6 8 Sur 15 Sur 0 -- -- 78
2021-02-24 12:00:00 14.6 8 Sudeste 14 Sudeste 0 -- -- 88
2021-02-24 11:00:00 14.8 12 Sur 21 Sur 0 -- -- 81
2021-02-24 10:00:00 14.1 4 Sudeste 18 Sudeste 0 -- -- 87
2021-02-24 09:00:00 13.4 5 Sur 14 Sur 0 -- -- 89
2021-02-24 08:00:00 12.4 3 Noroeste 5 Norte 0 -- -- 90
2021-02-24 07:00:00 12.8 0 Calma 6 Sudeste 0 -- -- 88
2021-02-24 06:00:00 12.7 0 Calma 5 Sudeste 0 -- -- 92
2021-02-24 05:00:00 12.9 2 Sudeste 7 Este 0 -- -- 92
2021-02-24 04:00:00 12.9 3 Sudeste 10 Sudeste 0 -- -- 93
2021-02-24 03:00:00 12.5 0 Calma 4 Sudoeste 0 -- -- 92
2021-02-24 02:00:00 13.5 3 Sudeste 9 Sudeste 0 -- -- 89
2021-02-24 01:00:00 13.7 5 Sudeste 14 Sudeste 0 -- -- 89
2021-02-24 00:00:00 13.6 4 Este 12 Sur 0 -- -- 92
2021-02-23 23:00:00 13.9 3 Sur 12 Sudeste 0 -- -- 92
2021-02-23 22:00:00 14.2 6 Sudeste 20 Sudeste 0 -- -- 90
2021-02-23 21:00:00 13.9 8 Sudeste 20 Sudeste 0 -- -- 89
2021-02-23 20:00:00 14.3 4 Sudeste 17 Este 0 -- -- 84
2021-02-23 19:00:00 14 5 Sudeste 14 Este 0 -- -- 89
2021-02-23 18:00:00 14.3 8 Sur 29 Sur 0 -- -- 88
2021-02-23 17:00:00 14.5 10 Sur 24 Sur 0 -- -- 87
2021-02-23 16:00:00 16.4 8 Sur 17 Sudeste 0 -- -- 78
2021-02-23 15:00:00 16.9 6 Sur 21 Sur 0 -- -- 71
2021-02-23 14:00:00 17.4 12 Sur 22 Sur 0 -- -- 71
2021-02-23 13:00:00 16 15 Sur 26 Sur 0 -- -- 80
2021-02-23 12:00:00 15.3 15 Sur 25 Sur 0 -- -- 82
2021-02-23 11:00:00 15.7 8 Sur 17 Sur 0 -- -- 81
2021-02-23 10:00:00 14.9 6 Sur 15 Sudeste 0 -- -- 83
2021-02-23 09:00:00 13.5 4 Sur 17 Sudeste 0 -- -- 90
2021-02-23 08:00:00 12.8 5 Sudeste 15 Sur 0 -- -- 91
2021-02-23 07:00:00 13.1 8 Sudeste 24 Sur 0 -- -- 90
2021-02-23 06:00:00 13.2 9 Sudeste 23 Sudeste 0 -- -- 92
2021-02-23 05:00:00 13.1 9 Sudeste 24 Sudeste 0 -- -- 92
2021-02-23 04:00:00 12.8 5 Sudeste 15 Sudeste 0 -- -- 95
2021-02-23 03:00:00 12.4 4 Sudeste 13 Sudeste 0 -- -- 98
2021-02-23 02:00:00 11.4 2 Noroeste 5 Norte 0 -- -- 98
2021-02-23 01:00:00 11.6 0 Calma 5 Noroeste 0 -- -- 98
2021-02-23 00:00:00 11.6 0 Calma 5 Norte 0 -- -- 98
2021-02-22 23:00:00 11.3 0 Calma 3 Norte 0 -- -- 97
2021-02-22 22:00:00 11.1 0 Calma 5 Noroeste 0.2 -- -- 97
2021-02-22 21:00:00 11.1 0 Calma 5 Noroeste 0 -- -- 96
2021-02-22 20:00:00 11.4 0 Calma 6 Este 0.6 -- -- 94
2021-02-22 19:00:00 11.9 0 Calma 15 Sur 0.4 -- -- 94
2021-02-22 18:00:00 12.2 9 Sur 18 Sudeste 0.4 -- -- 94
2021-02-22 17:00:00 12.7 5 Sur 18 Sudeste 0 -- -- 91
2021-02-22 16:00:00 13.6 3 Sudeste 14 Sudeste 0 -- -- 83
2021-02-22 15:00:00 13.4 7 Sudeste 26 Sudoeste 0 -- -- 83
2021-02-22 14:00:00 13.9 10 Sur 30 Este 0 -- -- 81
2021-02-22 13:00:00 13.9 14 Sudeste 31 Sudeste 0 -- -- 78
2021-02-22 12:00:00 13.7 11 Sudeste 32 Este 0.6 -- -- 82
2021-02-22 11:00:00 13.5 10 Este 27 Este 0.6 -- -- 84
2021-02-22 10:00:00 13.5 8 Este 21 Sudeste 0.8 -- -- 86
2021-02-22 09:00:00 13.1 4 Sudeste 21 Este 1.2 -- -- 91
2021-02-22 08:00:00 13.2 3 Noroeste 6 Sur 0.2 -- -- 93
2021-02-22 07:00:00 14 4 Sur 26 Sur 0 -- -- 90
2021-02-22 06:00:00 14.5 9 Sur 22 Nordeste 0 -- -- 87
2021-02-22 05:00:00 14.5 10 Sur 32 Sudeste 0 -- -- 87
2021-02-22 04:00:00 15.2 18 Sudeste 40 Sudeste 0 -- -- 82
2021-02-22 03:00:00 15.2 13 Sudeste 38 Sudeste 0 -- -- 80
2021-02-22 02:00:00 14.9 14 Sur 33 Este 0 -- -- 81
2021-02-22 01:00:00 15 15 Sudeste 47 Este 0 -- -- 80
2021-02-22 00:00:00 14.9 23 Sudeste 54 Este 0 -- -- 79
2021-02-21 23:00:00 14.8 21 Sudeste 51 Sur 0 -- -- 80
2021-02-21 22:00:00 14.6 27 Sudeste 55 Sudeste 0 -- -- 80
2021-02-21 21:00:00 14.4 28 Sudeste 60 Este 0 -- -- 80
2021-02-21 20:00:00 14.3 25 Sudeste 65 Sudeste 0 -- -- 81
2021-02-21 19:00:00 14.2 26 Sudeste 57 Este 0 -- -- 81
2021-02-21 18:00:00 14.1 21 Sudeste 56 Sudeste 0 -- -- 80
2021-02-21 17:00:00 14.4 27 Sudeste 60 Sudeste 0 -- -- 78
2021-02-21 16:00:00 14.3 26 Sudeste 57 Este 0 -- -- 78
2021-02-21 15:00:00 14.7 21 Sudeste 55 Sudeste 0 -- -- 76
2021-02-21 14:00:00 14.4 25 Sudeste 52 Sudeste 0 -- -- 77
2021-02-21 13:00:00 14.5 28 Sudeste 58 Sudeste 0 -- -- 76
2021-02-21 12:00:00 14.4 25 Sudeste 56 Sudeste 0 -- -- 76
2021-02-21 11:00:00 14.3 22 Sudeste 58 Sudeste 0 -- -- 76
2021-02-21 10:00:00 13.6 25 Sudeste 64 Sudeste 0 -- -- 79
2021-02-21 09:00:00 13.3 23 Sudeste 45 Sudeste 0 -- -- 80
2021-02-21 08:00:00 12.7 13 Sudeste 36 Sudeste 0 -- -- 81
2021-02-21 07:00:00 12.3 11 Sudeste 31 Este 0 -- -- 82
2021-02-21 06:00:00 12.1 10 Sudeste 31 Este 0 -- -- 82
2021-02-21 05:00:00 12.1 13 Sudeste 35 Sudeste 0 -- -- 82
2021-02-21 04:00:00 11.9 9 Sudeste 26 Sudeste 0 -- -- 83
2021-02-21 03:00:00 11.8 10 Sudeste 30 Sudeste 0 -- -- 82
2021-02-21 02:00:00 11.5 8 Sudeste 23 Sur 0 -- -- 85
2021-02-21 01:00:00 8 3 Noroeste 8 Sudoeste 0 -- -- 94
2021-02-21 00:00:00 8.6 3 Norte 8 Este 0 -- -- 92
2021-02-20 23:00:00 9.1 3 Sudeste 13 Nordeste 0 -- -- 93
2021-02-20 22:00:00 8.2 2 Noroeste 4 Noroeste 0 -- -- 92
2021-02-20 21:00:00 10 0 Calma 13 Sudeste 0 -- -- 86
2021-02-20 20:00:00 11.8 6 Sudeste 17 Este 0 -- -- 83
2021-02-20 19:00:00 12 6 Sudeste 17 Este 0 -- -- 83
2021-02-20 18:00:00 12.7 5 Sudeste 9 Sudeste 0 -- -- 78
2021-02-20 17:00:00 13.4 4 Sur 13 Sur 0 -- -- 73
2021-02-20 16:00:00 14.1 4 Sur 10 Oeste 0 -- -- 70
2021-02-20 15:00:00 13.4 4 Noroeste 13 Sur 0 -- -- 73
2021-02-20 14:00:00 13.7 6 Sudeste 15 Sudeste 0 -- -- 72
2021-02-20 13:00:00 13.2 5 Noroeste 11 Sudeste 0 -- -- 73
2021-02-20 12:00:00 13 6 Sudeste 12 Sur 0 -- -- 78
2021-02-20 11:00:00 12.7 2 Sudeste 8 Sur 0 -- -- 78
2021-02-20 10:00:00 12.2 0 Calma 4 Noroeste 0 -- -- 82
2021-02-20 09:00:00 11.1 0 Calma 5 Este 0 -- -- 88
2021-02-20 08:00:00 10.4 0 Calma 4 Sur 0 -- -- 89
2021-02-20 07:00:00 10.5 0 Calma 5 Norte 0 -- -- 87
2021-02-20 06:00:00 10.8 4 Norte 8 Norte 0 -- -- 85
2021-02-20 05:00:00 10.5 3 Norte 13 Norte 0 -- -- 85
2021-02-20 04:00:00 10.3 5 Norte 11 Noroeste 0 -- -- 86
2021-02-20 03:00:00 10.2 5 Noroeste 12 Noroeste 0 -- -- 87
2021-02-20 02:00:00 10 3 Noroeste 12 Noroeste 0 -- -- 88
2021-02-20 01:00:00 10.1 6 Norte 13 Norte 0 -- -- 89
2021-02-20 00:00:00 10.4 6 Norte 15 Norte 0 -- -- 89
2021-02-19 23:00:00 10.6 6 Norte 14 Norte 0 -- -- 90
2021-02-19 22:00:00 10.7 5 Norte 12 Norte 0 -- -- 91
2021-02-19 21:00:00 10.5 6 Norte 12 Norte 0 -- -- 92
2021-02-19 20:00:00 10.1 3 Norte 13 Noroeste 0 -- -- 91
2021-02-19 19:00:00 11.1 5 Norte 14 Noroeste 0 -- -- 88
2021-02-19 18:00:00 11.7 6 Norte 15 Norte 0 -- -- 85
2021-02-19 17:00:00 12.5 6 Norte 15 Norte 0 -- -- 83
2021-02-19 16:00:00 12.7 6 Norte 17 Noroeste 0 -- -- 82
2021-02-19 15:00:00 12.9 6 Norte 17 Norte 0 -- -- 79
2021-02-19 14:00:00 12.6 8 Norte 15 Norte 0 -- -- 79
2021-02-19 13:00:00 11.6 6 Norte 20 Noroeste 0 -- -- 84
2021-02-19 12:00:00 11 4 Norte 13 Norte 0 -- -- 86
2021-02-19 11:00:00 10.5 4 Norte 10 Nordeste 0 -- -- 88
2021-02-19 10:00:00 9.7 4 Nordeste 9 Nordeste 0 -- -- 91
2021-02-19 09:00:00 9.2 3 Nordeste 6 Nordeste 0 -- -- 95
2021-02-19 08:00:00 8.7 0 Calma 3 Sudeste 0 -- -- 98
2021-02-19 07:00:00 8.3 0 Calma 3 Noroeste 0 -- -- 98
2021-02-19 06:00:00 6.9 0 Calma 3 Norte 0 -- -- 98
2021-02-19 05:00:00 5.8 0 Calma 4 Noroeste 0 -- -- 97
2021-02-19 04:00:00 6.2 0 Calma 3 Noroeste 0 -- -- 96
2021-02-19 03:00:00 7.2 0 Calma 11 Noroeste 0 -- -- 94
2021-02-19 02:00:00 7.8 5 Noroeste 10 Noroeste 0 -- -- 96
2021-02-19 01:00:00 8.1 5 Noroeste 8 Noroeste 0 -- -- 95
2021-02-19 00:00:00 8.3 3 Noroeste 13 Noroeste 0 -- -- 92
2021-02-18 23:00:00 8.8 4 Norte 10 Noroeste 0 -- -- 93
2021-02-18 22:00:00 9.3 3 Noroeste 8 Norte 0 -- -- 91
2021-02-18 21:00:00 10.3 2 Noroeste 8 Norte 0 -- -- 86
2021-02-18 20:00:00 11.5 0 Calma 6 Norte 0 -- -- 84
2021-02-18 19:00:00 11.5 3 Norte 8 Norte 0 -- -- 83
2021-02-18 18:00:00 12.3 3 Norte 9 Sur 0 -- -- 80
2021-02-18 17:00:00 12.8 3 Sudeste 11 Sudeste 0 -- -- 77
2021-02-18 16:00:00 13.5 4 Nordeste 13 Sur 0 -- -- 74
2021-02-18 15:00:00 14.3 4 Nordeste 15 Oeste 0 -- -- 75
2021-02-18 14:00:00 13.4 6 Sur 18 Noroeste 0 -- -- 79
2021-02-18 13:00:00 13.9 4 Norte 18 Norte 0 -- -- 74
2021-02-18 12:00:00 13.3 4 Norte 13 Norte 0 -- -- 79
2021-02-18 11:00:00 12.4 6 Norte 14 Norte 0 -- -- 83
2021-02-18 10:00:00 11.5 4 Norte 13 Norte 0 -- -- 87
2021-02-18 09:00:00 11.2 4 Norte 12 Norte 0 -- -- 88
2021-02-18 08:00:00 11 6 Norte 13 Norte 0 -- -- 88
2021-02-18 07:00:00 11 5 Norte 14 Noroeste 0 -- -- 88
2021-02-18 06:00:00 10.9 6 Norte 14 Noroeste 0 -- -- 88
2021-02-18 05:00:00 10.8 7 Norte 15 Noroeste 0 -- -- 89
2021-02-18 04:00:00 10.8 7 Norte 18 Norte 0 -- -- 90
2021-02-18 03:00:00 10.8 7 Norte 16 Norte 0 -- -- 91
2021-02-18 02:00:00 10.7 8 Norte 16 Noroeste 0 -- -- 92
2021-02-18 01:00:00 10.8 5 Norte 15 Noroeste 0 -- -- 91
2021-02-18 00:00:00 11.1 6 Norte 15 Noroeste 0 -- -- 91
2021-02-17 23:00:00 11.4 6 Norte 14 Norte 0 -- -- 90
2021-02-17 22:00:00 11.5 8 Norte 16 Norte 0 -- -- 91
2021-02-17 21:00:00 11.5 6 Norte 14 Norte 0 -- -- 90
2021-02-17 20:00:00 11.7 8 Norte 17 Noroeste 0 -- -- 88
2021-02-17 19:00:00 12.1 6 Norte 13 Norte 0 -- -- 87
2021-02-17 18:00:00 12.3 4 Norte 14 Norte 0 -- -- 86
2021-02-17 17:00:00 12.7 7 Norte 17 Norte 0 -- -- 83
2021-02-17 16:00:00 13.5 6 Norte 17 Norte 0 -- -- 80
2021-02-17 15:00:00 13 8 Norte 17 Norte 0 -- -- 82
2021-02-17 14:00:00 13 3 Oeste 14 Noroeste 0 -- -- 82
2021-02-17 13:00:00 13.3 6 Oeste 19 Sudoeste 0 -- -- 81
2021-02-17 12:00:00 13.6 6 Oeste 18 Oeste 0 -- -- 78
2021-02-17 11:00:00 14.1 5 Sudeste 11 Sudeste 0 -- -- 76
2021-02-17 10:00:00 13 4 Sudeste 7 Este 0 -- -- 83
2021-02-17 09:00:00 9.7 0 Calma 3 Norte 0 -- -- 99
2021-02-17 08:00:00 7.3 0 Calma 4 Sudoeste 0 -- -- 98
2021-02-17 07:00:00 7.4 2 Noroeste 4 Norte 0 -- -- 97
2021-02-17 06:00:00 7.6 0 Calma 6 Noroeste 0 -- -- 97
2021-02-17 05:00:00 7.3 2 Noroeste 5 Sur 0 -- -- 96
2021-02-17 04:00:00 7.8 3 Noroeste 5 Noroeste 0 -- -- 95
2021-02-17 03:00:00 8.5 2 Noroeste 5 Noroeste 0 -- -- 92
2021-02-17 02:00:00 10.5 0 Calma 7 Noroeste 0 -- -- 88
2021-02-17 01:00:00 11.2 0 Calma 6 Nordeste 0 -- -- 87
2021-02-17 00:00:00 11.3 3 Nordeste 15 Norte 0 -- -- 87
2021-02-16 23:00:00 11.3 7 Norte 22 Norte 0 -- -- 88
2021-02-16 22:00:00 11.3 10 Norte 26 Norte 0 -- -- 88
2021-02-16 21:00:00 11.7 10 Norte 22 Norte 0 -- -- 88
2021-02-16 20:00:00 11.9 14 Norte 26 Norte 0 -- -- 88
2021-02-16 19:00:00 11.9 14 Norte 28 Norte 0 -- -- 86
2021-02-16 18:00:00 12.2 15 Norte 37 Norte 0 -- -- 84
2021-02-16 17:00:00 12.8 15 Norte 33 Norte 0 -- -- 81
2021-02-16 16:00:00 13.3 17 Norte 33 Norte 0 -- -- 77
2021-02-16 15:00:00 13.8 16 Norte 31 Nordeste 0 -- -- 76
2021-02-16 14:00:00 13.3 14 Norte 32 Norte 0 -- -- 78
2021-02-16 13:00:00 12.7 13 Norte 31 Nordeste 0 -- -- 82
2021-02-16 12:00:00 13.1 13 Norte 28 Nordeste 0 -- -- 80
2021-02-16 11:00:00 13.5 12 Norte 28 Norte 0 -- -- 79
2021-02-16 10:00:00 12.3 10 Norte 24 Nordeste 0 -- -- 86
2021-02-16 09:00:00 12.2 9 Norte 25 Norte 0 -- -- 86
2021-02-16 08:00:00 12 10 Norte 26 Norte 0 -- -- 87
2021-02-16 07:00:00 11.9 6 Norte 23 Norte 0 -- -- 87
2021-02-16 06:00:00 -- -- -- -- -- -- -- -- --
2021-02-16 05:00:00 -- -- -- -- -- -- -- -- --
2021-02-16 04:00:00 -- -- -- -- -- -- -- -- --
2021-02-16 03:00:00 -- -- -- -- -- -- -- -- --
2021-02-16 02:00:00 11.1 4 Noroeste 10 Norte 0 -- -- 93
2021-02-16 01:00:00 10.9 2 Sudoeste 18 Norte 0 -- -- 92
2021-02-16 00:00:00 11 6 Norte 17 Norte 0 -- -- 90
2021-02-15 23:00:00 10.1 0 Calma 4 Noroeste 0 -- -- 96
2021-02-15 22:00:00 10 0 Calma 4 Este 0.8 -- -- 95
2021-02-15 21:00:00 9.9 0 Calma 5 Noroeste 0.6 -- -- 93
2021-02-15 20:00:00 10.3 4 Norte 8 Norte 0 -- -- 88
2021-02-15 19:00:00 10.6 3 Norte 9 Nordeste 0 -- -- 83
2021-02-15 18:00:00 11 0 Calma 4 Norte 0 -- -- 79
2021-02-15 17:00:00 11.1 0 Calma 4 Norte 0 -- -- 78
2021-02-15 16:00:00 11.2 3 Norte 9 Nordeste 0 -- -- 75
2021-02-15 15:00:00 11.3 4 Norte 9 Norte 0 -- -- 72
2021-02-15 14:00:00 11.3 3 Norte 10 Noroeste 0 -- -- 72
2021-02-15 13:00:00 11 0 Calma 7 Noroeste 0 -- -- 73
2021-02-15 12:00:00 10.6 3 Norte 5 Norte 0 -- -- 77
2021-02-15 11:00:00 9.8 3 Norte 5 Norte 0 -- -- 81
2021-02-15 10:00:00 8.8 0 Calma 2 Noroeste 0 -- -- 86
2021-02-15 09:00:00 8.2 0 Calma 2 Noroeste 0 -- -- 87
2021-02-15 08:00:00 8 0 Calma 2 Norte 0 -- -- 87
2021-02-15 07:00:00 7.9 2 Norte 3 Noroeste 0 -- -- 87
2021-02-15 06:00:00 7.9 0 Calma 2 Sur 0 -- -- 87
2021-02-15 05:00:00 7.8 0 Calma 4 Noroeste 0 -- -- 86
2021-02-15 04:00:00 7.8 0 Calma 2 Norte 0 -- -- 85
2021-02-15 03:00:00 7.9 0 Calma 3 Norte 0 -- -- 84
2021-02-15 02:00:00 -- -- -- -- -- -- -- -- --
2021-02-15 01:00:00 -- -- -- -- -- -- -- -- --
2021-02-15 00:00:00 -- -- -- -- -- -- -- -- --
2021-02-14 23:00:00 -- -- -- -- -- -- -- -- --
2021-02-14 22:00:00 -- -- -- -- -- -- -- -- --
2021-02-14 21:00:00 -- -- -- -- -- -- -- -- --
2021-02-14 20:00:00 -- -- -- -- -- -- -- -- --
2021-02-14 19:00:00 -- -- -- -- -- -- -- -- --
2021-02-14 18:00:00 -- -- -- -- -- -- -- -- --
2021-02-14 17:00:00 -- -- -- -- -- -- -- -- --
2021-02-14 16:00:00 -- -- -- -- -- -- -- -- --
2021-02-14 15:00:00 -- -- -- -- -- -- -- -- --
2021-02-14 14:00:00 -- -- -- -- -- -- -- -- --
2021-02-14 13:00:00 -- -- -- -- -- -- -- -- --
2021-02-14 12:00:00 -- -- -- -- -- -- -- -- --
2021-02-14 11:00:00 -- -- -- -- -- -- -- -- --
2021-02-14 10:00:00 -- -- -- -- -- -- -- -- --
2021-02-14 09:00:00 -- -- -- -- -- -- -- -- --
2021-02-14 08:00:00 -- -- -- -- -- -- -- -- --
2021-02-14 07:00:00 -- -- -- -- -- -- -- -- --
2021-02-14 06:00:00 -- -- -- -- -- -- -- -- --
2021-02-14 05:00:00 -- -- -- -- -- -- -- -- --
2021-02-14 04:00:00 -- -- -- -- -- -- -- -- --
2021-02-14 03:00:00 -- -- -- -- -- -- -- -- --
2021-02-14 02:00:00 -- -- -- -- -- -- -- -- --
2021-02-14 01:00:00 -- -- -- -- -- -- -- -- --
2021-02-14 00:00:00 -- -- -- -- -- -- -- -- --
2021-02-13 23:00:00 -- -- -- -- -- -- -- -- --
2021-02-13 22:00:00 -- -- -- -- -- -- -- -- --
2021-02-13 21:00:00 -- -- -- -- -- -- -- -- --
2021-02-13 20:00:00 -- -- -- -- -- -- -- -- --
2021-02-13 19:00:00 -- -- -- -- -- -- -- -- --
2021-02-13 18:00:00 -- -- -- -- -- -- -- -- --
2021-02-13 17:00:00 -- -- -- -- -- -- -- -- --
2021-02-13 16:00:00 -- -- -- -- -- -- -- -- --
2021-02-13 15:00:00 -- -- -- -- -- -- -- -- --
2021-02-13 14:00:00 -- -- -- -- -- -- -- -- --
2021-02-13 13:00:00 -- -- -- -- -- -- -- -- --
2021-02-13 08:00:00 -- -- -- -- -- -- -- -- --
2021-02-13 07:00:00 -- -- -- -- -- -- -- -- --
2021-02-13 06:00:00 -- -- -- -- -- -- -- -- --
2021-02-13 05:00:00 -- -- -- -- -- -- -- -- --
2021-02-13 04:00:00 -- -- -- -- -- -- -- -- --
2021-02-13 03:00:00 -- -- -- -- -- -- -- -- --
2021-02-13 02:00:00 8.9 2 Noroeste 5 Noroeste 0 -- -- 96
2021-02-13 01:00:00 10 0 Calma 4 Noroeste 0 -- -- 95
2021-02-13 00:00:00 11.6 0 Calma 4 Oeste 0 -- -- 95
2021-02-12 23:00:00 11.6 4 Sur 12 Sur 0 -- -- 96
2021-02-12 22:00:00 11.3 2 Norte 10 Sur 0 -- -- 94
2021-02-12 21:00:00 12.1 4 Sur 9 Sudeste 0 -- -- 95
2021-02-12 20:00:00 12 4 Sur 25 Sur 0.4 -- -- 94
2021-02-12 19:00:00 14.4 4 Sur 23 Noroeste 0 -- -- 79
2021-02-12 18:00:00 15.6 11 Noroeste 26 Noroeste 0 -- -- 63
2021-02-12 17:00:00 16 8 Noroeste 24 Noroeste 0 -- -- 58
2021-02-12 16:00:00 15.9 9 Norte 30 Norte 0 -- -- 67
2021-02-12 15:00:00 16 8 Noroeste 22 Norte 0 -- -- 71
2021-02-12 14:00:00 14 11 Norte 23 Noroeste 0 -- -- 82
2021-02-12 13:00:00 14.7 6 Sudeste 10 Sudeste 0 -- -- 68
2021-02-12 12:00:00 14.2 3 Sur 19 Sur 0 -- -- 76
2021-02-12 11:00:00 14.3 5 Sur 10 Sur 0 -- -- 75
2021-02-12 10:00:00 12.3 0 Calma 7 Sur 0 -- -- 84
2021-02-12 09:00:00 10.6 3 Norte 7 Sur 0 -- -- 84
2021-02-12 08:00:00 9.1 0 Calma 5 Noroeste 0 -- -- 88
2021-02-12 07:00:00 9 2 Noroeste 5 Noroeste 0 -- -- 87
2021-02-12 06:00:00 8.8 2 Noroeste 5 Norte 0 -- -- 88
2021-02-12 05:00:00 8.8 2 Noroeste 7 Norte 0 -- -- 85
2021-02-12 04:00:00 8.3 3 Noroeste 6 Noroeste 0 -- -- 87
2021-02-12 03:00:00 8.8 3 Noroeste 8 Noroeste 0 -- -- 84
2021-02-12 02:00:00 9.1 3 Norte 6 Noroeste 0 -- -- 85
2021-02-12 01:00:00 9.7 3 Norte 6 Norte 0 -- -- 80
2021-02-12 00:00:00 10 3 Noroeste 8 Sur 0 -- -- 71
2021-02-11 23:00:00 10.9 0 Calma 6 Sur 0 -- -- 65
2021-02-11 22:00:00 -- -- -- -- -- -- -- -- --
2021-02-11 21:00:00 -- -- -- -- -- -- -- -- --
2021-02-11 20:00:00 -- -- -- -- -- -- -- -- --
2021-02-11 19:00:00 -- -- -- -- -- -- -- -- --
2021-02-11 18:00:00 -- -- -- -- -- -- -- -- --
2021-02-11 17:00:00 -- -- -- -- -- -- -- -- --
2021-02-11 16:00:00 -- -- -- -- -- -- -- -- --
2021-02-11 15:00:00 -- -- -- -- -- -- -- -- --
2021-02-11 14:00:00 -- -- -- -- -- -- -- -- --
2021-02-11 13:00:00 -- -- -- -- -- -- -- -- --
2021-02-11 12:00:00 -- -- -- -- -- -- -- -- --
2021-02-11 11:00:00 -- -- -- -- -- -- -- -- --
2021-02-11 10:00:00 13.1 6 Sur 11 Sur 0 -- -- 64
2021-02-11 09:00:00 9.5 0 Calma 4 Norte 0 -- -- 73
2021-02-11 08:00:00 8.4 3 Sur 10 Noroeste 0 -- -- 70
2021-02-11 07:00:00 7.7 0 Calma 8 Norte 0 -- -- 73
2021-02-11 06:00:00 9.3 4 Noroeste 17 Noroeste 0 -- -- 67
2021-02-11 05:00:00 9.4 4 Noroeste 21 Norte 0 -- -- 66
2021-02-11 04:00:00 9.5 6 Norte 18 Noroeste 0 -- -- 66
2021-02-11 03:00:00 9.5 5 Noroeste 23 Noroeste 0 -- -- 63
2021-02-11 02:00:00 10.4 5 Noroeste 16 Noroeste 0 -- -- 60
2021-02-11 01:00:00 11.9 5 Noroeste 22 Noroeste 0 -- -- 54
2021-02-11 00:00:00 9.9 9 Norte 17 Noroeste 0 -- -- 65
2021-02-10 23:00:00 11.5 9 Noroeste 19 Norte 0 -- -- 60
2021-02-10 22:00:00 11 8 Norte 24 Noroeste 0 -- -- 63
2021-02-10 21:00:00 12.9 13 Noroeste 29 Noroeste 0 -- -- 55
2021-02-10 20:00:00 13.2 18 Norte 31 Noroeste 0 -- -- 55
2021-02-10 19:00:00 12.9 5 Norte 21 Norte 0 -- -- 58
2021-02-10 18:00:00 14.2 9 Norte 28 Noroeste 0 -- -- 54
2021-02-10 17:00:00 14.2 13 Noroeste 36 Noroeste 0 -- -- 55
2021-02-10 16:00:00 14.6 18 Noroeste 42 Noroeste 0 -- -- 55
2021-02-10 15:00:00 14.7 22 Noroeste 53 Noroeste 0 -- -- 54
2021-02-10 14:00:00 14.7 9 Oeste 53 Noroeste 0 -- -- 55
2021-02-10 13:00:00 13.4 20 Norte 41 Norte 0 -- -- 60
2021-02-10 12:00:00 13.5 15 Noroeste 33 Noroeste 0 -- -- 60
2021-02-10 11:00:00 11.6 10 Noroeste 22 Noroeste 0 -- -- 70
2021-02-10 10:00:00 10.2 4 Noroeste 13 Norte 0.2 -- -- 81
2021-02-10 09:00:00 10.5 4 Noroeste 18 Norte 0 -- -- 79
2021-02-10 08:00:00 11.5 7 Norte 22 Nordeste 0 -- -- 63
2021-02-10 07:00:00 9.4 0 Calma 16 Noroeste 0 -- -- 72
2021-02-10 06:00:00 10 5 Norte 18 Norte 0 -- -- 69
2021-02-10 05:00:00 9.8 4 Noroeste 13 Norte 0 -- -- 72
2021-02-10 04:00:00 9.4 0 Calma 14 Norte 0 -- -- 77
2021-02-10 03:00:00 10.6 7 Norte 17 Norte 0 -- -- 67
2021-02-10 02:00:00 9.9 3 Noroeste 19 Norte 0 -- -- 75
2021-02-10 01:00:00 11.5 5 Norte 15 Noroeste 0 -- -- 75
2021-02-10 00:00:00 11.8 7 Norte 26 Norte 0 -- -- 74
2021-02-09 23:00:00 9.7 5 Norte 15 Norte 0 -- -- 89
2021-02-09 22:00:00 12.2 6 Norte 17 Norte 0 -- -- 83
2021-02-09 21:00:00 12.2 8 Norte 17 Norte 0 -- -- 85
2021-02-09 20:00:00 12.8 10 Norte 26 Norte 0.2 -- -- 81
2021-02-09 19:00:00 13.5 6 Norte 25 Nordeste 0 -- -- 76
2021-02-09 18:00:00 13.6 12 Norte 24 Norte 0 -- -- 70
2021-02-09 17:00:00 13.1 9 Norte 27 Noroeste 0 -- -- 72
2021-02-09 16:00:00 12.7 13 Norte 25 Norte 0 -- -- 72
2021-02-09 15:00:00 12.7 10 Norte 26 Norte 0 -- -- 75
2021-02-09 14:00:00 13.6 7 Norte 20 Nordeste 0 -- -- 76
2021-02-09 13:00:00 13.8 8 Norte 16 Norte 0 -- -- 73
2021-02-09 12:00:00 13.2 5 Norte 18 Norte 0 -- -- 70
2021-02-09 11:00:00 14.3 9 Norte 22 Noroeste 0 -- -- 59
2021-02-09 10:00:00 12.2 3 Norte 19 Noroeste 0 -- -- 68
2021-02-09 09:00:00 11.2 6 Noroeste 17 Noroeste 0 -- -- 67
2021-02-09 08:00:00 8.4 4 Norte 10 Norte 0 -- -- 79
2021-02-09 07:00:00 10.4 6 Norte 17 Noroeste 0 -- -- 69
2021-02-09 06:00:00 10.5 5 Norte 23 Norte 0 -- -- 68
2021-02-09 05:00:00 9.5 9 Noroeste 19 Noroeste 0 -- -- 73
2021-02-09 04:00:00 6.8 3 Norte 9 Noroeste 0 -- -- 87
2021-02-09 03:00:00 8.2 0 Calma 14 Oeste 0 -- -- 82
2021-02-09 02:00:00 10.6 9 Noroeste 27 Noroeste 0 -- -- 68
2021-02-09 01:00:00 8 3 Norte 13 Noroeste 0 -- -- 85
2021-02-09 00:00:00 8.5 3 Noroeste 8 Noroeste 0 -- -- 83
2021-02-08 23:00:00 10.9 3 Norte 21 Noroeste 0 -- -- 75
2021-02-08 22:00:00 9.8 5 Norte 19 Oeste 0 -- -- 81
2021-02-08 21:00:00 11 4 Norte 23 Norte 0 -- -- 78
2021-02-08 20:00:00 8.8 3 Norte 11 Norte 0 -- -- 93
2021-02-08 19:00:00 9.4 3 Noroeste 10 Norte 0 -- -- 90
2021-02-08 18:00:00 12 4 Norte 22 Norte 0 -- -- 82
2021-02-08 17:00:00 12.7 10 Norte 30 Noroeste 0 -- -- 71
2021-02-08 16:00:00 11.8 4 Noroeste 20 Norte 0 -- -- 86
2021-02-08 15:00:00 10.4 5 Norte 21 Norte 1.2 -- -- 91
2021-02-08 14:00:00 10.5 8 Norte 24 Norte 0.8 -- -- 90
2021-02-08 13:00:00 10.6 5 Noroeste 22 Noroeste 0.4 -- -- 85
2021-02-08 12:00:00 11.1 9 Norte 20 Norte 0.4 -- -- 80
2021-02-08 11:00:00 13.3 8 Noroeste 22 Norte 0 -- -- 70
2021-02-08 10:00:00 13.4 4 Norte 16 Noroeste 0 -- -- 61
2021-02-08 09:00:00 11.7 5 Noroeste 22 Noroeste 0 -- -- 65
2021-02-08 08:00:00 10.5 5 Noroeste 17 Noroeste 0 -- -- 66
2021-02-08 07:00:00 8.7 3 Norte 14 Noroeste 0 -- -- 72
2021-02-08 06:00:00 9.9 4 Norte 15 Norte 0 -- -- 65
2021-02-08 05:00:00 10.6 2 Noroeste 19 Noroeste 0 -- -- 61
2021-02-08 04:00:00 10.8 8 Norte 19 Noroeste 0 -- -- 59
2021-02-08 03:00:00 11.1 9 Norte 22 Norte 0 -- -- 57
2021-02-08 02:00:00 11.3 10 Norte 32 Norte 0 -- -- 57
2021-02-08 01:00:00 11 12 Norte 27 Norte 0 -- -- 66
2021-02-08 00:00:00 11 11 Norte 28 Noroeste 0 -- -- 63
2021-02-07 23:00:00 11.1 8 Norte 16 Norte 0 -- -- 62
2021-02-07 22:00:00 8.3 3 Norte 8 Norte 0 -- -- 71
2021-02-07 21:00:00 8.5 4 Noroeste 9 Oeste 0 -- -- 70
2021-02-07 20:00:00 8.2 0 Calma 4 Noroeste 0 -- -- 74
2021-02-07 19:00:00 9.9 3 Noroeste 4 Oeste 0 -- -- 68
2021-02-07 18:00:00 12.2 3 Sur 8 Sudeste 0 -- -- 59
2021-02-07 17:00:00 12.6 4 Sudeste 16 Sur 0 -- -- 57
2021-02-07 16:00:00 13.6 3 Oeste 12 Sur 0 -- -- 55
2021-02-07 15:00:00 13.5 4 Sur 18 Nordeste 0 -- -- 55
2021-02-07 14:00:00 13.9 5 Nordeste 19 Norte 0 -- -- 52
2021-02-07 13:00:00 13.4 3 Nordeste 17 Noroeste 0 -- -- 55
2021-02-07 12:00:00 12.5 5 Norte 22 Noroeste 0 -- -- 57
2021-02-07 11:00:00 10.8 8 Noroeste 19 Noroeste 0 -- -- 60
2021-02-07 10:00:00 9.7 10 Noroeste 18 Noroeste 0 -- -- 65
2021-02-07 09:00:00 9.6 7 Noroeste 27 Norte 0 -- -- 66
2021-02-07 08:00:00 9.7 10 Noroeste 30 Noroeste 0 -- -- 67
2021-02-07 07:00:00 10 12 Norte 28 Noroeste 0 -- -- 69
2021-02-07 06:00:00 10.3 13 Norte 29 Noroeste 0 -- -- 69
2021-02-07 05:00:00 11.6 18 Noroeste 32 Noroeste 0 -- -- 69
2021-02-07 04:00:00 11.7 14 Noroeste 24 Noroeste 0 -- -- 69
2021-02-07 03:00:00 11.9 5 Noroeste 24 Noroeste 0 -- -- 72
2021-02-07 02:00:00 12.3 15 Noroeste 37 Noroeste 0 -- -- 72
2021-02-07 01:00:00 12.7 13 Norte 27 Norte 0 -- -- 72
2021-02-07 00:00:00 13.2 10 Norte 25 Noroeste 0 -- -- 70
2021-02-06 23:00:00 12.7 11 Norte 21 Norte 0 -- -- 82
2021-02-06 22:00:00 12.5 9 Noroeste 21 Noroeste 0 -- -- 92
2021-02-06 21:00:00 12 3 Oeste 10 Norte 0 -- -- 90
2021-02-06 20:00:00 12.6 6 Norte 12 Norte 0 -- -- 93
2021-02-06 19:00:00 12.7 4 Noroeste 19 Norte 0 -- -- 90
2021-02-06 18:00:00 13.4 8 Norte 20 Norte 0 -- -- 89
2021-02-06 17:00:00 14.2 10 Norte 27 Noroeste 0 -- -- 82
2021-02-06 16:00:00 14.9 13 Norte 30 Norte 0 -- -- 76
2021-02-06 15:00:00 14.7 13 Norte 24 Norte 0 -- -- 78
2021-02-06 14:00:00 15.3 6 Oeste 15 Sur 0 -- -- 81
2021-02-06 13:00:00 14.8 5 Sur 12 Sudeste 0 -- -- 84
2021-02-06 12:00:00 14 8 Sur 15 Sudeste 0 -- -- 89
2021-02-06 11:00:00 14.4 10 Sudeste 24 Sur 0 -- -- 84
2021-02-06 10:00:00 14.4 12 Sur 32 Sur 0 -- -- 81
2021-02-06 09:00:00 15 9 Sur 32 Sur 0 -- -- 75
2021-02-06 08:00:00 15.3 5 Sudeste 41 Sur 0 -- -- 72
2021-02-06 07:00:00 16.1 9 Sudeste 23 Sur 0 -- -- 67
2021-02-06 06:00:00 16.4 6 Sudeste 27 Sur 0 -- -- 64
2021-02-06 05:00:00 16.1 15 Sur 35 Sudeste 0 -- -- 65
2021-02-06 04:00:00 17 9 Este 36 Sudeste 0 -- -- 59
2021-02-06 03:00:00 16.6 7 Sudeste 31 Sudeste 0 -- -- 59
2021-02-06 02:00:00 16.9 9 Sudeste 31 Sudeste 0 -- -- 56
2021-02-06 01:00:00 17.5 10 Este 33 Este 0 -- -- 52
2021-02-06 00:00:00 16.3 10 Sudeste 32 Este 0 -- -- 58
2021-02-05 23:00:00 14.8 7 Sur 15 Sudeste 0 -- -- 68
2021-02-05 22:00:00 12.2 3 Norte 11 Norte 0 -- -- 82
2021-02-05 21:00:00 13 3 Sur 22 Sudeste 0 -- -- 85
2021-02-05 20:00:00 13.3 7 Sudeste 30 Sur 0 -- -- 84
2021-02-05 19:00:00 13.9 4 Sur 22 Sudeste 0 -- -- 78
2021-02-05 18:00:00 14.6 9 Sur 24 Sudeste 0 -- -- 74
2021-02-05 17:00:00 14.5 11 Sudeste 29 Este 0 -- -- 78
2021-02-05 16:00:00 15 8 Sur 30 Sur 0 -- -- 73
2021-02-05 15:00:00 14.7 10 Sudeste 31 Sur 0 -- -- 76
2021-02-05 14:00:00 17.1 15 Sur 37 Sur 0 -- -- 62
2021-02-05 13:00:00 16.4 12 Sudeste 39 Sudeste 0 -- -- 64
2021-02-05 12:00:00 14.9 17 Sudeste 37 Sudeste 0 -- -- 73
2021-02-05 11:00:00 13.1 17 Sudeste 30 Sur 0 -- -- 80
2021-02-05 10:00:00 12.2 7 Sudeste 16 Sudeste 0 -- -- 83
2021-02-05 09:00:00 11.4 3 Sudoeste 9 Sur 0 -- -- 89
2021-02-05 08:00:00 11.3 4 Noroeste 18 Sudeste 0 -- -- 88
2021-02-05 07:00:00 11.5 3 Sudeste 10 Nordeste 0 -- -- 89
2021-02-05 06:00:00 10.4 0 Calma 3 Sudeste 0 -- -- 92
2021-02-05 05:00:00 10.3 2 Noroeste 4 Norte 0 -- -- 95
2021-02-05 04:00:00 9.6 2 Noroeste 5 Norte 0 -- -- 93
2021-02-05 03:00:00 10.4 0 Calma 6 Sudoeste 0 -- -- 91
2021-02-05 02:00:00 11.1 3 Nordeste 9 Nordeste 0 -- -- 88
2021-02-05 01:00:00 10.8 0 Calma 4 Norte 0 -- -- 92
2021-02-05 00:00:00 11.1 2 Noroeste 3 Noroeste 0 -- -- 91
2021-02-04 23:00:00 11.4 0 Calma 2 Noroeste 0 -- -- 90
2021-02-04 22:00:00 11.7 0 Calma 2 Noroeste 0 -- -- 90
2021-02-04 21:00:00 11.8 0 Calma 4 Noroeste 0 -- -- 90
2021-02-04 20:00:00 11.8 0 Calma 8 Sur 0 -- -- 90
2021-02-04 19:00:00 11.8 5 Sur 8 Sur 0 -- -- 91
2021-02-04 18:00:00 11.7 3 Sudeste 7 Sur 0 -- -- 92
2021-02-04 17:00:00 11.8 2 Sudeste 8 Sur 0 -- -- 91
2021-02-04 16:00:00 11.8 4 Sur 15 Sudeste 0 -- -- 92
2021-02-04 15:00:00 12.2 5 Sur 14 Sudeste 0 -- -- 91
2021-02-04 14:00:00 12.7 7 Sur 14 Sur 0 -- -- 89
2021-02-04 13:00:00 13.5 9 Sur 16 Sur 0 -- -- 85
2021-02-04 12:00:00 14.1 11 Sur 15 Sur 0 -- -- 83
2021-02-04 11:00:00 12.7 6 Sur 15 Sur 0 -- -- 87
2021-02-04 10:00:00 12.8 8 Sur 16 Sur 0 -- -- 88
2021-02-04 09:00:00 9.9 3 Norte 5 Norte 0 -- -- 94
2021-02-04 08:00:00 9.4 0 Calma 4 Norte 0 -- -- 93
2021-02-04 07:00:00 9.3 0 Calma 3 Noroeste 0 -- -- 93
2021-02-04 06:00:00 9.3 0 Calma 5 Noroeste 0 -- -- 91
2021-02-04 05:00:00 9.3 0 Calma 7 Norte 0 -- -- 91
2021-02-04 04:00:00 9.1 3 Noroeste 5 Noroeste 0 -- -- 92
2021-02-04 03:00:00 9.5 0 Calma 6 Norte 0 -- -- 91
2021-02-04 02:00:00 9.8 2 Noroeste 5 Noroeste 0 -- -- 89
2021-02-04 01:00:00 10.3 0 Calma 4 Noroeste 0 -- -- 87
2021-02-04 00:00:00 10.8 3 Noroeste 5 Noroeste 0 -- -- 84
2021-02-03 23:00:00 11.6 2 Norte 7 Norte 0 -- -- 83
2021-02-03 22:00:00 12.8 0 Calma 12 Sur 0 -- -- 82
2021-02-03 21:00:00 12.9 0 Calma 6 Nordeste 0 -- -- 74
2021-02-03 20:00:00 13.4 0 Calma 5 Norte 0 -- -- 72
2021-02-03 19:00:00 14.2 3 Noroeste 7 Noroeste 0 -- -- 67
2021-02-03 18:00:00 16.4 3 Noroeste 15 Noroeste 0 -- -- 65
2021-02-03 17:00:00 15.9 6 Noroeste 21 Oeste 0 -- -- 70
2021-02-03 16:00:00 18.7 8 Noroeste 24 Noroeste 0 -- -- 56
2021-02-03 15:00:00 18.1 6 Noroeste 22 Norte 0 -- -- 55
2021-02-03 14:00:00 17.7 11 Noroeste 28 Noroeste 0 -- -- 55
2021-02-03 13:00:00 16.1 14 Noroeste 26 Noroeste 0 -- -- 65
2021-02-03 12:00:00 19.2 6 Noroeste 22 Noroeste 0 -- -- 51
2021-02-03 11:00:00 17.9 8 Noroeste 22 Noroeste 0 -- -- 57
2021-02-03 10:00:00 16 9 Norte 23 Norte 0 -- -- 56
2021-02-03 09:00:00 13.9 4 Norte 12 Noroeste 0 -- -- 64
2021-02-03 08:00:00 12.6 6 Noroeste 14 Norte 0 -- -- 68
2021-02-03 07:00:00 14.2 8 Norte 17 Norte 0 -- -- 62
2021-02-03 06:00:00 14.2 8 Norte 21 Nordeste 0 -- -- 64
2021-02-03 05:00:00 14.4 10 Norte 21 Norte 0 -- -- 65
2021-02-03 04:00:00 10.7 0 Calma 14 Noroeste 0 -- -- 82
2021-02-03 03:00:00 9.8 0 Calma 4 Norte 0 -- -- 89
2021-02-03 02:00:00 10 0 Calma 4 Noroeste 0 -- -- 89
2021-02-03 01:00:00 10.1 0 Calma 4 Norte 0 -- -- 88
2021-02-03 00:00:00 10.7 0 Calma 4 Noroeste 0 -- -- 83
2021-02-02 23:00:00 12.3 3 Norte 11 Noroeste 0 -- -- 76
2021-02-02 22:00:00 12.1 2 Noroeste 9 Noroeste 0 -- -- 78
2021-02-02 21:00:00 13.1 4 Noroeste 15 Noroeste 0 -- -- 75
2021-02-02 20:00:00 14.4 6 Noroeste 16 Norte 0 -- -- 73
2021-02-02 19:00:00 14.4 6 Noroeste 15 Noroeste 0 -- -- 76
2021-02-02 18:00:00 15.9 8 Norte 20 Noroeste 0 -- -- 68
2021-02-02 17:00:00 16.8 6 Sudoeste 14 Noroeste 0 -- -- 66
2021-02-02 16:00:00 18.5 4 Norte 13 Sudeste 0 -- -- 58
2021-02-02 15:00:00 18.1 3 Sur 14 Sur 0 -- -- 65
2021-02-02 14:00:00 18.4 5 Norte 16 Norte 0 -- -- 55
2021-02-02 13:00:00 16.6 7 Sur 13 Sur 0 -- -- 61
2021-02-02 12:00:00 16.2 3 Este 19 Sur 0 -- -- 65
2021-02-02 11:00:00 16.8 3 Noroeste 14 Oeste 0 -- -- 62
2021-02-02 10:00:00 15.6 2 Oeste 7 Sudoeste 0 -- -- 65
2021-02-02 09:00:00 11.3 0 Calma 4 Noroeste 0 -- -- 81
2021-02-02 08:00:00 10.5 3 Noroeste 7 Sudoeste 0 -- -- 80
2021-02-02 07:00:00 11.8 4 Noroeste 10 Noroeste 0 -- -- 75
2021-02-02 06:00:00 13.8 4 Norte 18 Norte 0 -- -- 68
2021-02-02 05:00:00 14.2 8 Norte 29 Noroeste 0 -- -- 67
2021-02-02 04:00:00 16 15 Norte 30 Norte 0 -- -- 58
2021-02-02 03:00:00 16.1 9 Noroeste 26 Noroeste 0 -- -- 56
2021-02-02 02:00:00 13.6 6 Norte 13 Norte 0 -- -- 64
2021-02-02 01:00:00 13.7 4 Norte 18 Norte 0 -- -- 61
2021-02-02 00:00:00 16.1 7 Norte 24 Noroeste 0 -- -- 52
2021-02-01 23:00:00 17.1 6 Norte 28 Noroeste 0 -- -- 47
2021-02-01 22:00:00 14.3 3 Norte 15 Noroeste 0 -- -- 62
2021-02-01 21:00:00 15 6 Noroeste 14 Oeste 0 -- -- 59
2021-02-01 20:00:00 17.3 6 Sur 31 Norte 0 -- -- 51
2021-02-01 19:00:00 17.9 8 Norte 23 Noroeste 0 -- -- 48
2021-02-01 18:00:00 18.9 6 Sudoeste 36 Norte 0 -- -- 43
2021-02-01 17:00:00 18.8 10 Noroeste 25 Oeste 0 -- -- 43
2021-02-01 16:00:00 19.8 12 Noroeste 32 Noroeste 0 -- -- 39
2021-02-01 15:00:00 20.3 14 Norte 64 Noroeste 0 -- -- 39
2021-02-01 14:00:00 19.5 22 Noroeste 65 Noroeste 0 -- -- 41
2021-02-01 13:00:00 18.9 18 Norte 48 Noroeste 0 -- -- 44
2021-02-01 12:00:00 17.9 18 Noroeste 54 Noroeste 0 -- -- 45
2021-02-01 11:00:00 17 19 Noroeste 48 Noroeste 0 -- -- 49
2021-02-01 10:00:00 16.2 20 Noroeste 45 Noroeste 0 -- -- 50
2021-02-01 09:00:00 15.5 15 Noroeste 36 Noroeste 0 -- -- 51
2021-02-01 08:00:00 15.4 7 Norte 24 Norte 0 -- -- 50
2021-02-01 07:00:00 15 4 Noroeste 17 Sur 0 -- -- 50
2021-02-01 06:00:00 12.2 3 Sudoeste 12 Norte 0 -- -- 65
2021-02-01 05:00:00 13 4 Sudoeste 14 Noroeste 0 -- -- 64
2021-02-01 04:00:00 15.6 7 Noroeste 29 Noroeste 0 -- -- 56
2021-02-01 03:00:00 16 11 Norte 26 Norte 0 -- -- 57
2021-02-01 02:00:00 17.1 14 Norte 36 Norte 0 -- -- 55
2021-02-01 01:00:00 13.6 3 Noroeste 27 Norte 0 -- -- 69
2021-02-01 00:00:00 16 11 Norte 30 Noroeste 0 -- -- 60